sensor_id;sensor_type;location;lat;lon;timestamp;P1;durP1;ratioP1;P2;durP2;ratioP2
21183;SDS011;18176;49.502;11.754;2022-08-19T00:01:07;31.95;;;28.65;;
21183;SDS011;18176;49.502;11.754;2022-08-19T00:05:04;33.38;;;29.70;;
21183;SDS011;18176;49.502;11.754;2022-08-19T00:09:03;32.03;;;28.55;;
21183;SDS011;18176;49.502;11.754;2022-08-19T00:13:04;35.17;;;30.08;;
21183;SDS011;18176;49.502;11.754;2022-08-19T00:17:02;35.35;;;30.80;;
21183;SDS011;18176;49.502;11.754;2022-08-19T00:21:00;35.05;;;31.10;;
21183;SDS011;18176;49.502;11.754;2022-08-19T00:24:58;35.55;;;31.65;;
21183;SDS011;18176;49.502;11.754;2022-08-19T00:28:57;34.40;;;29.92;;
21183;SDS011;18176;49.502;11.754;2022-08-19T00:32:54;32.40;;;28.52;;
21183;SDS011;18176;49.502;11.754;2022-08-19T00:36:51;34.22;;;29.65;;
21183;SDS011;18176;49.502;11.754;2022-08-19T00:40:48;38.28;;;33.40;;
21183;SDS011;18176;49.502;11.754;2022-08-19T00:44:46;34.13;;;30.48;;
21183;SDS011;18176;49.502;11.754;2022-08-19T00:48:43;38.10;;;32.88;;
21183;SDS011;18176;49.502;11.754;2022-08-19T00:52:42;32.38;;;28.73;;
21183;SDS011;18176;49.502;11.754;2022-08-19T00:56:44;37.40;;;31.38;;
21183;SDS011;18176;49.502;11.754;2022-08-19T01:00:42;33.67;;;30.10;;
21183;SDS011;18176;49.502;11.754;2022-08-19T01:04:41;32.47;;;28.90;;
21183;SDS011;18176;49.502;11.754;2022-08-19T01:08:38;31.50;;;28.13;;
21183;SDS011;18176;49.502;11.754;2022-08-19T01:12:35;33.13;;;29.42;;
21183;SDS011;18176;49.502;11.754;2022-08-19T01:16:34;31.42;;;28.02;;
21183;SDS011;18176;49.502;11.754;2022-08-19T01:20:34;30.00;;;26.75;;
21183;SDS011;18176;49.502;11.754;2022-08-19T01:24:31;32.75;;;27.88;;
21183;SDS011;18176;49.502;11.754;2022-08-19T01:28:32;29.23;;;26.10;;
21183;SDS011;18176;49.502;11.754;2022-08-19T01:32:37;29.52;;;26.35;;
21183;SDS011;18176;49.502;11.754;2022-08-19T01:36:42;30.98;;;27.65;;
21183;SDS011;18176;49.502;11.754;2022-08-19T01:40:43;28.75;;;25.65;;
21183;SDS011;18176;49.502;11.754;2022-08-19T01:44:40;32.58;;;28.33;;
21183;SDS011;18176;49.502;11.754;2022-08-19T01:48:39;30.90;;;27.55;;
21183;SDS011;18176;49.502;11.754;2022-08-19T01:52:40;29.85;;;26.65;;
21183;SDS011;18176;49.502;11.754;2022-08-19T01:56:40;26.90;;;24.00;;
21183;SDS011;18176;49.502;11.754;2022-08-19T02:00:37;30.45;;;26.98;;
21183;SDS011;18176;49.502;11.754;2022-08-19T02:04:35;27.88;;;24.98;;
21183;SDS011;18176;49.502;11.754;2022-08-19T02:08:36;30.27;;;26.98;;
21183;SDS011;18176;49.502;11.754;2022-08-19T02:12:34;27.25;;;23.70;;
21183;SDS011;18176;49.502;11.754;2022-08-19T02:16:33;29.38;;;25.70;;
21183;SDS011;18176;49.502;11.754;2022-08-19T02:20:31;28.70;;;25.40;;
21183;SDS011;18176;49.502;11.754;2022-08-19T02:24:28;32.47;;;28.27;;
21183;SDS011;18176;49.502;11.754;2022-08-19T02:28:25;29.83;;;26.58;;
21183;SDS011;18176;49.502;11.754;2022-08-19T02:32:22;28.90;;;25.88;;
21183;SDS011;18176;49.502;11.754;2022-08-19T02:36:19;29.58;;;26.38;;
21183;SDS011;18176;49.502;11.754;2022-08-19T02:40:17;25.02;;;22.27;;
21183;SDS011;18176;49.502;11.754;2022-08-19T02:44:14;28.65;;;23.40;;
21183;SDS011;18176;49.502;11.754;2022-08-19T02:48:25;31.90;;;26.02;;
21183;SDS011;18176;49.502;11.754;2022-08-19T02:52:23;35.10;;;27.33;;
21183;SDS011;18176;49.502;11.754;2022-08-19T02:56:24;30.50;;;27.20;;
21183;SDS011;18176;49.502;11.754;2022-08-19T03:00:23;33.67;;;27.05;;
21183;SDS011;18176;49.502;11.754;2022-08-19T03:04:20;34.05;;;27.63;;
21183;SDS011;18176;49.502;11.754;2022-08-19T03:08:17;32.20;;;26.70;;
21183;SDS011;18176;49.502;11.754;2022-08-19T03:12:16;38.10;;;28.73;;
21183;SDS011;18176;49.502;11.754;2022-08-19T03:16:13;35.17;;;29.80;;
21183;SDS011;18176;49.502;11.754;2022-08-19T03:20:11;37.13;;;27.50;;
21183;SDS011;18176;49.502;11.754;2022-08-19T03:24:08;34.78;;;29.55;;
21183;SDS011;18176;49.502;11.754;2022-08-19T03:28:05;34.67;;;28.42;;
21183;SDS011;18176;49.502;11.754;2022-08-19T03:32:04;34.72;;;29.90;;
21183;SDS011;18176;49.502;11.754;2022-08-19T03:36:06;36.80;;;29.58;;
21183;SDS011;18176;49.502;11.754;2022-08-19T03:40:07;35.63;;;29.17;;
21183;SDS011;18176;49.502;11.754;2022-08-19T03:44:09;41.85;;;31.38;;
21183;SDS011;18176;49.502;11.754;2022-08-19T03:48:14;43.78;;;31.80;;
21183;SDS011;18176;49.502;11.754;2022-08-19T03:52:13;37.78;;;30.60;;
21183;SDS011;18176;49.502;11.754;2022-08-19T03:56:10;33.30;;;28.83;;
21183;SDS011;18176;49.502;11.754;2022-08-19T04:00:09;36.53;;;30.33;;
21183;SDS011;18176;49.502;11.754;2022-08-19T04:04:09;33.10;;;27.15;;
21183;SDS011;18176;49.502;11.754;2022-08-19T04:08:06;34.90;;;28.30;;
21183;SDS011;18176;49.502;11.754;2022-08-19T04:12:09;36.65;;;29.92;;
21183;SDS011;18176;49.502;11.754;2022-08-19T04:16:06;37.72;;;28.13;;
21183;SDS011;18176;49.502;11.754;2022-08-19T04:20:03;36.33;;;28.23;;
21183;SDS011;18176;49.502;11.754;2022-08-19T04:24:03;32.92;;;27.27;;
21183;SDS011;18176;49.502;11.754;2022-08-19T04:28:00;33.55;;;25.55;;
21183;SDS011;18176;49.502;11.754;2022-08-19T04:31:58;30.33;;;25.48;;
21183;SDS011;18176;49.502;11.754;2022-08-19T04:36:04;41.92;;;27.65;;
21183;SDS011;18176;49.502;11.754;2022-08-19T04:40:03;34.83;;;27.55;;
21183;SDS011;18176;49.502;11.754;2022-08-19T04:44:20;30.92;;;24.58;;
21183;SDS011;18176;49.502;11.754;2022-08-19T04:48:18;33.70;;;26.08;;
21183;SDS011;18176;49.502;11.754;2022-08-19T04:52:24;30.17;;;24.75;;
21183;SDS011;18176;49.502;11.754;2022-08-19T04:56:21;30.08;;;25.25;;
21183;SDS011;18176;49.502;11.754;2022-08-19T05:00:18;31.35;;;26.25;;
21183;SDS011;18176;49.502;11.754;2022-08-19T05:04:17;31.23;;;26.25;;
21183;SDS011;18176;49.502;11.754;2022-08-19T05:08:17;27.15;;;22.42;;
21183;SDS011;18176;49.502;11.754;2022-08-19T05:12:29;29.67;;;24.52;;
21183;SDS011;18176;49.502;11.754;2022-08-19T05:16:26;27.02;;;23.70;;
21183;SDS011;18176;49.502;11.754;2022-08-19T05:20:24;30.92;;;24.45;;
21183;SDS011;18176;49.502;11.754;2022-08-19T05:24:40;29.20;;;24.30;;
21183;SDS011;18176;49.502;11.754;2022-08-19T05:28:57;31.92;;;24.17;;
21183;SDS011;18176;49.502;11.754;2022-08-19T05:32:55;26.65;;;21.42;;
21183;SDS011;18176;49.502;11.754;2022-08-19T05:36:54;24.67;;;21.83;;
21183;SDS011;18176;49.502;11.754;2022-08-19T05:40:57;24.23;;;19.48;;
21183;SDS011;18176;49.502;11.754;2022-08-19T05:44:56;19.50;;;17.42;;
21183;SDS011;18176;49.502;11.754;2022-08-19T05:48:53;18.98;;;16.13;;
21183;SDS011;18176;49.502;11.754;2022-08-19T05:52:52;19.00;;;16.95;;
21183;SDS011;18176;49.502;11.754;2022-08-19T05:56:50;20.80;;;17.85;;
21183;SDS011;18176;49.502;11.754;2022-08-19T06:00:49;21.83;;;17.23;;
21183;SDS011;18176;49.502;11.754;2022-08-19T06:04:46;18.52;;;16.58;;
21183;SDS011;18176;49.502;11.754;2022-08-19T06:08:43;17.85;;;16.00;;
21183;SDS011;18176;49.502;11.754;2022-08-19T06:12:47;19.52;;;17.13;;
21183;SDS011;18176;49.502;11.754;2022-08-19T06:16:44;18.08;;;16.08;;
21183;SDS011;18176;49.502;11.754;2022-08-19T06:20:42;15.88;;;14.27;;
21183;SDS011;18176;49.502;11.754;2022-08-19T06:24:51;16.50;;;14.80;;
21183;SDS011;18176;49.502;11.754;2022-08-19T06:28:50;18.40;;;16.48;;
21183;SDS011;18176;49.502;11.754;2022-08-19T06:32:47;14.25;;;12.85;;
21183;SDS011;18176;49.502;11.754;2022-08-19T06:36:46;15.27;;;13.77;;
21183;SDS011;18176;49.502;11.754;2022-08-19T06:40:45;16.25;;;14.45;;
21183;SDS011;18176;49.502;11.754;2022-08-19T06:44:43;14.77;;;13.23;;
21183;SDS011;18176;49.502;11.754;2022-08-19T06:48:48;12.55;;;11.32;;
21183;SDS011;18176;49.502;11.754;2022-08-19T06:52:45;15.35;;;13.75;;
21183;SDS011;18176;49.502;11.754;2022-08-19T06:56:46;13.63;;;12.23;;
21183;SDS011;18176;49.502;11.754;2022-08-19T07:00:43;14.02;;;12.38;;
21183;SDS011;18176;49.502;11.754;2022-08-19T07:04:41;15.88;;;14.25;;
21183;SDS011;18176;49.502;11.754;2022-08-19T07:08:38;19.45;;;16.52;;
21183;SDS011;18176;49.502;11.754;2022-08-19T07:12:39;16.88;;;15.18;;
21183;SDS011;18176;49.502;11.754;2022-08-19T07:16:37;18.92;;;16.65;;
21183;SDS011;18176;49.502;11.754;2022-08-19T07:20:39;16.63;;;14.82;;
21183;SDS011;18176;49.502;11.754;2022-08-19T07:24:38;15.50;;;13.90;;
21183;SDS011;18176;49.502;11.754;2022-08-19T07:28:46;14.40;;;12.95;;
21183;SDS011;18176;49.502;11.754;2022-08-19T07:32:48;19.90;;;17.90;;
21183;SDS011;18176;49.502;11.754;2022-08-19T07:36:48;17.60;;;15.70;;
21183;SDS011;18176;49.502;11.754;2022-08-19T07:40:46;17.00;;;14.85;;
21183;SDS011;18176;49.502;11.754;2022-08-19T07:44:43;16.75;;;15.07;;
21183;SDS011;18176;49.502;11.754;2022-08-19T07:48:46;16.70;;;14.90;;
21183;SDS011;18176;49.502;11.754;2022-08-19T07:52:46;16.52;;;14.70;;
21183;SDS011;18176;49.502;11.754;2022-08-19T07:56:46;13.75;;;12.35;;
21183;SDS011;18176;49.502;11.754;2022-08-19T08:00:48;14.05;;;12.63;;
21183;SDS011;18176;49.502;11.754;2022-08-19T08:04:48;14.30;;;12.90;;
21183;SDS011;18176;49.502;11.754;2022-08-19T08:09:04;12.20;;;10.98;;
21183;SDS011;18176;49.502;11.754;2022-08-19T08:13:11;12.50;;;11.30;;
21183;SDS011;18176;49.502;11.754;2022-08-19T08:17:09;10.20;;;9.20;;
21183;SDS011;18176;49.502;11.754;2022-08-19T08:21:07;11.75;;;10.55;;
21183;SDS011;18176;49.502;11.754;2022-08-19T08:25:15;12.23;;;10.10;;
21183;SDS011;18176;49.502;11.754;2022-08-19T08:29:17;12.25;;;11.05;;
21183;SDS011;18176;49.502;11.754;2022-08-19T08:33:17;10.85;;;9.75;;
21183;SDS011;18176;49.502;11.754;2022-08-19T08:37:30;10.32;;;9.32;;
21183;SDS011;18176;49.502;11.754;2022-08-19T08:45:46;9.95;;;9.05;;
21183;SDS011;18176;49.502;11.754;2022-08-19T08:54:13;10.57;;;9.48;;
21183;SDS011;18176;49.502;11.754;2022-08-19T09:02:56;12.88;;;11.50;;
21183;SDS011;18176;49.502;11.754;2022-08-19T09:11:55;12.20;;;10.80;;
21183;SDS011;18176;49.502;11.754;2022-08-19T09:16:26;11.85;;;10.65;;
21183;SDS011;18176;49.502;11.754;2022-08-19T09:20:24;11.13;;;10.02;;
21183;SDS011;18176;49.502;11.754;2022-08-19T09:24:21;14.23;;;11.75;;
21183;SDS011;18176;49.502;11.754;2022-08-19T09:28:26;12.50;;;11.20;;
21183;SDS011;18176;49.502;11.754;2022-08-19T09:32:27;11.52;;;10.40;;
21183;SDS011;18176;49.502;11.754;2022-08-19T09:36:25;13.07;;;11.70;;
21183;SDS011;18176;49.502;11.754;2022-08-19T09:40:30;10.93;;;9.82;;
21183;SDS011;18176;49.502;11.754;2022-08-19T09:44:33;12.40;;;11.13;;
21183;SDS011;18176;49.502;11.754;2022-08-19T09:48:31;11.65;;;10.55;;
21183;SDS011;18176;49.502;11.754;2022-08-19T09:52:29;11.90;;;10.70;;
21183;SDS011;18176;49.502;11.754;2022-08-19T09:56:28;12.55;;;11.30;;
21183;SDS011;18176;49.502;11.754;2022-08-19T10:00:26;13.63;;;12.27;;
21183;SDS011;18176;49.502;11.754;2022-08-19T10:04:24;12.23;;;11.07;;
21183;SDS011;18176;49.502;11.754;2022-08-19T10:08:41;13.05;;;10.13;;
21183;SDS011;18176;49.502;11.754;2022-08-19T10:12:45;11.80;;;10.68;;
21183;SDS011;18176;49.502;11.754;2022-08-19T10:16:44;11.35;;;10.25;;
21183;SDS011;18176;49.502;11.754;2022-08-19T10:20:41;10.50;;;9.40;;
21183;SDS011;18176;49.502;11.754;2022-08-19T10:24:38;10.90;;;9.80;;
21183;SDS011;18176;49.502;11.754;2022-08-19T10:28:36;11.70;;;10.40;;
21183;SDS011;18176;49.502;11.754;2022-08-19T10:32:34;12.63;;;10.15;;
21183;SDS011;18176;49.502;11.754;2022-08-19T10:36:33;10.63;;;9.63;;
21183;SDS011;18176;49.502;11.754;2022-08-19T10:40:51;12.15;;;9.88;;
21183;SDS011;18176;49.502;11.754;2022-08-19T10:44:49;10.57;;;9.57;;
21183;SDS011;18176;49.502;11.754;2022-08-19T10:48:47;12.20;;;10.85;;
21183;SDS011;18176;49.502;11.754;2022-08-19T10:52:46;11.23;;;10.13;;
21183;SDS011;18176;49.502;11.754;2022-08-19T10:56:50;12.32;;;11.13;;
21183;SDS011;18176;49.502;11.754;2022-08-19T11:00:54;13.27;;;11.95;;
21183;SDS011;18176;49.502;11.754;2022-08-19T11:04:54;14.32;;;12.63;;
21183;SDS011;18176;49.502;11.754;2022-08-19T11:08:54;13.60;;;11.68;;
21183;SDS011;18176;49.502;11.754;2022-08-19T11:12:51;11.80;;;10.60;;
21183;SDS011;18176;49.502;11.754;2022-08-19T11:16:52;13.20;;;11.85;;
21183;SDS011;18176;49.502;11.754;2022-08-19T11:20:52;13.70;;;12.02;;
21183;SDS011;18176;49.502;11.754;2022-08-19T11:24:49;15.32;;;12.25;;
21183;SDS011;18176;49.502;11.754;2022-08-19T11:28:46;14.93;;;13.00;;
21183;SDS011;18176;49.502;11.754;2022-08-19T11:32:44;14.57;;;13.00;;
21183;SDS011;18176;49.502;11.754;2022-08-19T11:36:47;14.07;;;12.57;;
21183;SDS011;18176;49.502;11.754;2022-08-19T11:40:53;14.65;;;12.32;;
21183;SDS011;18176;49.502;11.754;2022-08-19T11:45:16;12.73;;;11.45;;
21183;SDS011;18176;49.502;11.754;2022-08-19T11:49:20;13.95;;;12.10;;
21183;SDS011;18176;49.502;11.754;2022-08-19T11:53:18;14.35;;;12.60;;
21183;SDS011;18176;49.502;11.754;2022-08-19T11:57:16;16.58;;;13.10;;
21183;SDS011;18176;49.502;11.754;2022-08-19T12:01:15;16.23;;;13.07;;
21183;SDS011;18176;49.502;11.754;2022-08-19T12:05:14;21.17;;;14.13;;
21183;SDS011;18176;49.502;11.754;2022-08-19T12:09:11;18.75;;;15.70;;
21183;SDS011;18176;49.502;11.754;2022-08-19T12:13:10;21.92;;;16.88;;
21183;SDS011;18176;49.502;11.754;2022-08-19T12:17:14;25.15;;;19.42;;
21183;SDS011;18176;49.502;11.754;2022-08-19T12:21:15;25.25;;;19.65;;
21183;SDS011;18176;49.502;11.754;2022-08-19T12:25:19;31.10;;;21.92;;
21183;SDS011;18176;49.502;11.754;2022-08-19T12:29:19;31.58;;;21.77;;
21183;SDS011;18176;49.502;11.754;2022-08-19T12:33:19;33.40;;;23.85;;
21183;SDS011;18176;49.502;11.754;2022-08-19T12:37:20;35.10;;;25.45;;
21183;SDS011;18176;49.502;11.754;2022-08-19T12:41:20;32.33;;;24.25;;
21183;SDS011;18176;49.502;11.754;2022-08-19T12:45:18;31.75;;;24.00;;
21183;SDS011;18176;49.502;11.754;2022-08-19T12:49:16;28.17;;;23.10;;
21183;SDS011;18176;49.502;11.754;2022-08-19T12:53:33;27.85;;;21.88;;
21183;SDS011;18176;49.502;11.754;2022-08-19T12:57:34;25.83;;;21.38;;
21183;SDS011;18176;49.502;11.754;2022-08-19T13:01:32;24.73;;;21.38;;
21183;SDS011;18176;49.502;11.754;2022-08-19T13:05:30;26.95;;;21.80;;
21183;SDS011;18176;49.502;11.754;2022-08-19T13:09:32;26.02;;;21.02;;
21183;SDS011;18176;49.502;11.754;2022-08-19T13:13:29;28.38;;;22.00;;
21183;SDS011;18176;49.502;11.754;2022-08-19T13:17:26;30.20;;;21.10;;
21183;SDS011;18176;49.502;11.754;2022-08-19T13:21:25;21.77;;;18.50;;
21183;SDS011;18176;49.502;11.754;2022-08-19T13:25:26;21.27;;;18.33;;
21183;SDS011;18176;49.502;11.754;2022-08-19T13:29:24;18.60;;;16.60;;
21183;SDS011;18176;49.502;11.754;2022-08-19T13:33:39;18.75;;;15.18;;
21183;SDS011;18176;49.502;11.754;2022-08-19T13:37:39;16.23;;;14.52;;
21183;SDS011;18176;49.502;11.754;2022-08-19T13:41:42;14.25;;;11.27;;
21183;SDS011;18176;49.502;11.754;2022-08-19T13:45:44;15.57;;;12.57;;
21183;SDS011;18176;49.502;11.754;2022-08-19T13:49:41;14.25;;;12.75;;
21183;SDS011;18176;49.502;11.754;2022-08-19T13:53:39;14.68;;;12.85;;
21183;SDS011;18176;49.502;11.754;2022-08-19T13:57:43;16.40;;;13.80;;
21183;SDS011;18176;49.502;11.754;2022-08-19T14:01:40;19.90;;;15.65;;
21183;SDS011;18176;49.502;11.754;2022-08-19T14:05:37;17.33;;;15.50;;
21183;SDS011;18176;49.502;11.754;2022-08-19T14:09:35;18.92;;;16.35;;
21183;SDS011;18176;49.502;11.754;2022-08-19T14:13:32;21.20;;;15.35;;
21183;SDS011;18176;49.502;11.754;2022-08-19T14:17:30;17.83;;;15.80;;
21183;SDS011;18176;49.502;11.754;2022-08-19T14:21:27;17.13;;;14.98;;
21183;SDS011;18176;49.502;11.754;2022-08-19T14:25:25;18.15;;;15.00;;
21183;SDS011;18176;49.502;11.754;2022-08-19T14:29:26;16.58;;;14.88;;
21183;SDS011;18176;49.502;11.754;2022-08-19T14:33:25;19.20;;;14.55;;
21183;SDS011;18176;49.502;11.754;2022-08-19T14:37:23;20.13;;;14.88;;
21183;SDS011;18176;49.502;11.754;2022-08-19T14:41:23;16.48;;;14.18;;
21183;SDS011;18176;49.502;11.754;2022-08-19T14:45:20;18.80;;;15.77;;
21183;SDS011;18176;49.502;11.754;2022-08-19T14:49:18;16.05;;;14.25;;
21183;SDS011;18176;49.502;11.754;2022-08-19T14:53:15;16.02;;;14.00;;
21183;SDS011;18176;49.502;11.754;2022-08-19T14:57:13;17.45;;;14.05;;
21183;SDS011;18176;49.502;11.754;2022-08-19T15:01:12;14.48;;;12.75;;
21183;SDS011;18176;49.502;11.754;2022-08-19T15:05:09;15.45;;;12.48;;
21183;SDS011;18176;49.502;11.754;2022-08-19T15:09:09;15.20;;;12.52;;
21183;SDS011;18176;49.502;11.754;2022-08-19T15:13:06;17.25;;;13.13;;
21183;SDS011;18176;49.502;11.754;2022-08-19T15:17:04;15.55;;;13.23;;
21183;SDS011;18176;49.502;11.754;2022-08-19T15:21:01;15.50;;;12.98;;
21183;SDS011;18176;49.502;11.754;2022-08-19T15:24:59;14.90;;;13.05;;
21183;SDS011;18176;49.502;11.754;2022-08-19T15:28:58;13.00;;;11.68;;
21183;SDS011;18176;49.502;11.754;2022-08-19T15:32:57;14.10;;;11.32;;
21183;SDS011;18176;49.502;11.754;2022-08-19T15:36:54;15.30;;;12.52;;
21183;SDS011;18176;49.502;11.754;2022-08-19T15:40:51;13.48;;;11.43;;
21183;SDS011;18176;49.502;11.754;2022-08-19T15:44:49;13.48;;;11.63;;
21183;SDS011;18176;49.502;11.754;2022-08-19T15:48:50;15.40;;;11.32;;
21183;SDS011;18176;49.502;11.754;2022-08-19T15:52:53;15.32;;;12.63;;
21183;SDS011;18176;49.502;11.754;2022-08-19T15:56:57;15.38;;;11.68;;
21183;SDS011;18176;49.502;11.754;2022-08-19T16:01:12;18.08;;;13.63;;
21183;SDS011;18176;49.502;11.754;2022-08-19T16:05:35;19.05;;;13.90;;
21183;SDS011;18176;49.502;11.754;2022-08-19T16:09:51;18.00;;;14.10;;
21183;SDS011;18176;49.502;11.754;2022-08-19T16:13:49;21.67;;;16.02;;
21183;SDS011;18176;49.502;11.754;2022-08-19T16:17:47;16.27;;;14.00;;
21183;SDS011;18176;49.502;11.754;2022-08-19T16:21:53;19.45;;;15.27;;
21183;SDS011;18176;49.502;11.754;2022-08-19T16:25:52;17.00;;;15.20;;
21183;SDS011;18176;49.502;11.754;2022-08-19T16:29:49;19.17;;;15.52;;
21183;SDS011;18176;49.502;11.754;2022-08-19T16:33:47;15.93;;;14.27;;
21183;SDS011;18176;49.502;11.754;2022-08-19T16:37:45;18.02;;;15.05;;
21183;SDS011;18176;49.502;11.754;2022-08-19T16:41:42;18.25;;;15.15;;
21183;SDS011;18176;49.502;11.754;2022-08-19T16:45:40;18.05;;;14.73;;
21183;SDS011;18176;49.502;11.754;2022-08-19T16:49:39;17.73;;;15.35;;
21183;SDS011;18176;49.502;11.754;2022-08-19T16:53:49;22.63;;;16.88;;
21183;SDS011;18176;49.502;11.754;2022-08-19T16:57:49;22.00;;;17.27;;
21183;SDS011;18176;49.502;11.754;2022-08-19T17:01:46;22.77;;;18.70;;
21183;SDS011;18176;49.502;11.754;2022-08-19T17:05:45;26.13;;;19.33;;
21183;SDS011;18176;49.502;11.754;2022-08-19T17:09:45;22.08;;;19.00;;
21183;SDS011;18176;49.502;11.754;2022-08-19T17:13:46;24.67;;;19.05;;
21183;SDS011;18176;49.502;11.754;2022-08-19T17:17:46;27.25;;;20.45;;
21183;SDS011;18176;49.502;11.754;2022-08-19T17:21:43;23.88;;;19.65;;
21183;SDS011;18176;49.502;11.754;2022-08-19T17:25:40;26.55;;;20.70;;
21183;SDS011;18176;49.502;11.754;2022-08-19T17:29:38;24.65;;;20.40;;
21183;SDS011;18176;49.502;11.754;2022-08-19T17:33:40;27.67;;;21.90;;
21183;SDS011;18176;49.502;11.754;2022-08-19T17:37:37;26.50;;;20.85;;
21183;SDS011;18176;49.502;11.754;2022-08-19T17:41:34;27.95;;;20.10;;
21183;SDS011;18176;49.502;11.754;2022-08-19T17:45:31;26.25;;;21.70;;
21183;SDS011;18176;49.502;11.754;2022-08-19T17:49:30;25.85;;;20.73;;
21183;SDS011;18176;49.502;11.754;2022-08-19T17:53:28;26.30;;;21.65;;
21183;SDS011;18176;49.502;11.754;2022-08-19T17:57:25;26.73;;;20.33;;
21183;SDS011;18176;49.502;11.754;2022-08-19T18:01:22;26.90;;;21.50;;
21183;SDS011;18176;49.502;11.754;2022-08-19T18:05:22;25.35;;;21.10;;
21183;SDS011;18176;49.502;11.754;2022-08-19T18:09:25;26.08;;;21.50;;
21183;SDS011;18176;49.502;11.754;2022-08-19T18:13:38;28.25;;;21.98;;
21183;SDS011;18176;49.502;11.754;2022-08-19T18:17:36;27.55;;;23.15;;
21183;SDS011;18176;49.502;11.754;2022-08-19T18:21:33;26.77;;;21.15;;
21183;SDS011;18176;49.502;11.754;2022-08-19T18:25:31;23.67;;;18.92;;
21183;SDS011;18176;49.502;11.754;2022-08-19T18:29:28;23.50;;;19.35;;
21183;SDS011;18176;49.502;11.754;2022-08-19T18:33:28;25.42;;;20.73;;
21183;SDS011;18176;49.502;11.754;2022-08-19T18:37:25;26.95;;;21.20;;
21183;SDS011;18176;49.502;11.754;2022-08-19T18:41:23;26.75;;;21.23;;
21183;SDS011;18176;49.502;11.754;2022-08-19T18:45:39;27.13;;;21.42;;
21183;SDS011;18176;49.502;11.754;2022-08-19T18:49:57;25.98;;;20.52;;
21183;SDS011;18176;49.502;11.754;2022-08-19T18:53:58;24.17;;;20.25;;
21183;SDS011;18176;49.502;11.754;2022-08-19T18:57:56;23.35;;;18.85;;
21183;SDS011;18176;49.502;11.754;2022-08-19T19:01:55;22.13;;;18.27;;
21183;SDS011;18176;49.502;11.754;2022-08-19T19:05:54;24.15;;;20.10;;
21183;SDS011;18176;49.502;11.754;2022-08-19T19:09:54;20.35;;;17.90;;
21183;SDS011;18176;49.502;11.754;2022-08-19T19:13:51;22.15;;;18.10;;
21183;SDS011;18176;49.502;11.754;2022-08-19T19:17:48;19.90;;;17.75;;
21183;SDS011;18176;49.502;11.754;2022-08-19T19:21:46;25.70;;;18.80;;
21183;SDS011;18176;49.502;11.754;2022-08-19T19:25:44;25.73;;;19.70;;
21183;SDS011;18176;49.502;11.754;2022-08-19T19:29:47;16.88;;;14.30;;
21183;SDS011;18176;49.502;11.754;2022-08-19T19:33:48;13.93;;;12.35;;
21183;SDS011;18176;49.502;11.754;2022-08-19T19:37:45;16.23;;;11.82;;
21183;SDS011;18176;49.502;11.754;2022-08-19T19:41:47;13.40;;;11.10;;
21183;SDS011;18176;49.502;11.754;2022-08-19T19:45:45;13.43;;;11.57;;
21183;SDS011;18176;49.502;11.754;2022-08-19T19:49:44;12.02;;;10.77;;
21183;SDS011;18176;49.502;11.754;2022-08-19T19:54:08;11.77;;;10.10;;
21183;SDS011;18176;49.502;11.754;2022-08-19T19:58:08;12.35;;;9.50;;
21183;SDS011;18176;49.502;11.754;2022-08-19T20:02:05;10.15;;;9.05;;
21183;SDS011;18176;49.502;11.754;2022-08-19T20:06:04;11.18;;;8.98;;
21183;SDS011;18176;49.502;11.754;2022-08-19T20:10:04;15.80;;;9.32;;
21183;SDS011;18176;49.502;11.754;2022-08-19T20:14:03;10.75;;;9.00;;
21183;SDS011;18176;49.502;11.754;2022-08-19T20:18:08;10.52;;;9.30;;
21183;SDS011;18176;49.502;11.754;2022-08-19T20:22:08;10.65;;;9.35;;
21183;SDS011;18176;49.502;11.754;2022-08-19T20:26:06;10.65;;;9.30;;
21183;SDS011;18176;49.502;11.754;2022-08-19T20:30:23;10.43;;;8.32;;
21183;SDS011;18176;49.502;11.754;2022-08-19T20:34:20;9.88;;;8.88;;
21183;SDS011;18176;49.502;11.754;2022-08-19T20:38:18;8.68;;;7.88;;
21183;SDS011;18176;49.502;11.754;2022-08-19T20:42:15;10.57;;;9.13;;
21183;SDS011;18176;49.502;11.754;2022-08-19T20:46:13;10.73;;;8.82;;
21183;SDS011;18176;49.502;11.754;2022-08-19T20:50:10;10.07;;;9.02;;
21183;SDS011;18176;49.502;11.754;2022-08-19T20:54:07;10.63;;;9.60;;
21183;SDS011;18176;49.502;11.754;2022-08-19T20:58:04;10.60;;;8.65;;
21183;SDS011;18176;49.502;11.754;2022-08-19T21:02:02;12.70;;;9.48;;
21183;SDS011;18176;49.502;11.754;2022-08-19T21:05:59;9.60;;;8.65;;
21183;SDS011;18176;49.502;11.754;2022-08-19T21:09:57;11.02;;;9.73;;
21183;SDS011;18176;49.502;11.754;2022-08-19T21:13:54;12.07;;;10.77;;
21183;SDS011;18176;49.502;11.754;2022-08-19T21:17:52;11.38;;;10.18;;
21183;SDS011;18176;49.502;11.754;2022-08-19T21:21:49;12.18;;;10.88;;
21183;SDS011;18176;49.502;11.754;2022-08-19T21:25:47;11.98;;;10.77;;
21183;SDS011;18176;49.502;11.754;2022-08-19T21:29:51;11.88;;;10.68;;
21183;SDS011;18176;49.502;11.754;2022-08-19T21:33:50;12.85;;;11.45;;
21183;SDS011;18176;49.502;11.754;2022-08-19T21:37:47;11.45;;;10.35;;
21183;SDS011;18176;49.502;11.754;2022-08-19T21:41:44;11.88;;;10.68;;
21183;SDS011;18176;49.502;11.754;2022-08-19T21:45:41;12.30;;;10.60;;
21183;SDS011;18176;49.502;11.754;2022-08-19T21:49:38;11.10;;;10.00;;
21183;SDS011;18176;49.502;11.754;2022-08-19T21:53:36;10.93;;;9.82;;
21183;SDS011;18176;49.502;11.754;2022-08-19T21:57:33;11.48;;;9.15;;
21183;SDS011;18176;49.502;11.754;2022-08-19T22:01:30;11.50;;;8.90;;
21183;SDS011;18176;49.502;11.754;2022-08-19T22:05:28;11.23;;;8.40;;
21183;SDS011;18176;49.502;11.754;2022-08-19T22:09:28;9.98;;;8.65;;
21183;SDS011;18176;49.502;11.754;2022-08-19T22:13:25;9.02;;;8.20;;
21183;SDS011;18176;49.502;11.754;2022-08-19T22:17:23;9.90;;;8.05;;
21183;SDS011;18176;49.502;11.754;2022-08-19T22:21:22;9.93;;;8.88;;
21183;SDS011;18176;49.502;11.754;2022-08-19T22:25:38;10.93;;;8.73;;
21183;SDS011;18176;49.502;11.754;2022-08-19T22:29:39;10.57;;;9.48;;
21183;SDS011;18176;49.502;11.754;2022-08-19T22:33:37;10.35;;;9.30;;
21183;SDS011;18176;49.502;11.754;2022-08-19T22:37:34;14.30;;;9.05;;
21183;SDS011;18176;49.502;11.754;2022-08-19T22:41:32;9.90;;;8.90;;
21183;SDS011;18176;49.502;11.754;2022-08-19T22:45:30;11.45;;;9.77;;
21183;SDS011;18176;49.502;11.754;2022-08-19T22:49:28;11.60;;;10.40;;
21183;SDS011;18176;49.502;11.754;2022-08-19T22:53:26;13.13;;;10.15;;
21183;SDS011;18176;49.502;11.754;2022-08-19T22:57:23;11.52;;;10.18;;
21183;SDS011;18176;49.502;11.754;2022-08-19T23:01:20;11.25;;;9.98;;
21183;SDS011;18176;49.502;11.754;2022-08-19T23:05:26;11.60;;;9.73;;
21183;SDS011;18176;49.502;11.754;2022-08-19T23:09:24;11.90;;;10.55;;
21183;SDS011;18176;49.502;11.754;2022-08-19T23:13:25;13.60;;;10.77;;
21183;SDS011;18176;49.502;11.754;2022-08-19T23:17:24;12.30;;;11.00;;
21183;SDS011;18176;49.502;11.754;2022-08-19T23:21:21;12.90;;;10.85;;
21183;SDS011;18176;49.502;11.754;2022-08-19T23:25:23;14.02;;;10.95;;